LYNILYBE

Guest
Details From LYNI - Nis
To LYBE - Belgrade
Flight Number -
Tags Generated
Created
Modified
Stats Distance 111 nm / 206 km
Max Altitude 0 ft / 0 m
Waypoints 2
Social Downloads 2
Likes 0
Share VATSIM

Download

Looking for another format? Having issues loading an existing format? Contact us
Advertisement - Login to hide

Notes

Generated

Route

LYNI LYBE

ID Type Via Altitude Latitude Longitude Leg Dist Tot Dist Heading (true) Name
O LYNI APT - 0 ft / 0 m 43.34124˚ 21.84129˚ - 0 nm - -
O LYBE APT - 0 ft / 0 m 44.82652˚ 20.29097˚ 111 nm 111 nm 324° / 323° -

Altitude Profile

Advertisement - Login to hide

LYNI

Details ICAO LYNI (INI)
Name NIS
Region Serbia and Montenegro
Timezone Europe/Belgrade (UTC+2.0)
Stats Elevation 648 ft / 198 m (AMSL)
Location 43.336748° 21.855417°
Runways 1
Magnetic Variation 4.813° E

METAR

LYNI 240830Z VRB02KT 9999 FEW017 21/16 Q1017 NOSIG

Decode

TAF

TAF LYNI 240500Z 2406/2506 07006KT 9999 SCT040 TX30/2414Z TN14/2503Z TEMPO 2411/2417 VRB17KT 2000 TSRA SCT015 SCT030CB BKN035

Decode

Departure Runways

ID Width Length Bearing (true) Bearing (mag) Surface Threshold Offset Overrun Length
11 148 ft / 45 m 8,187 ft / 2,495 m 113.61° 108.80° Asphalt 719 ft / 219 m 0 ft / 0 m
29 148 ft / 45 m 8,187 ft / 2,495 m 293.63° 288.82° Asphalt 985 ft / 300 m 0 ft / 0 m

LYBE

Details ICAO LYBE (BEG)
Name Belgrade
Region Serbia and Montenegro
Timezone Europe/Belgrade (UTC+2.0)
Stats Elevation 335 ft / 102 m (AMSL)
Location 44.818429° 20.309211°
Runways 1
Magnetic Variation 4.720° E

METAR

LYBE 240830Z VRB02KT CAVOK 25/14 Q1017 NOSIG

Decode

TAF

TAF LYBE 240500Z 2406/2506 09005KT CAVOK TX28/2413Z TN16/2503Z PROB40 TEMPO 2413/2420 VRB15KT 5000 TSRA SCT030CB BKN040 PROB40 TEMPO 2500/2504 1500 BR

Decode

Destination Runways

ID Width Length Bearing (true) Bearing (mag) Surface Threshold Offset Overrun Length
12 148 ft / 45 m 11,138 ft / 3,395 m 122.00° 117.28° Asphalt 1,000 ft / 305 m 0 ft / 0 m
30 148 ft / 45 m 11,138 ft / 3,395 m 302.03° 297.31° Asphalt 1,312 ft / 400 m 0 ft / 0 m

Approach Navaids

Runway Type Ident Frequency Range Bearing (true) Bearing (mag) Slope Elevation
12 Localiser YUB 110.30 MHz 25 nm / 46 km 121.92° 117.20° - 315 ft / 96 m (AMSL)
12 Glidescope YUB 110.30 MHz 25 nm / 46 km 121.92° 117.20° 3.00° 305 ft / 93 m (AMSL)
30 Localiser YBE 109.90 MHz 25 nm / 46 km 301.94° 297.22° - 298 ft / 91 m (AMSL)
30 Glidescope YBE 109.90 MHz 25 nm / 46 km 301.94° 297.22° 3.00° 328 ft / 100 m (AMSL)

Popular Alternatives